createdAt,value
2022-10-20T06:33:54.813Z,6.24
2022-10-20T06:36:41.910Z,6.34
2022-10-20T06:39:27.457Z,6.29
2022-10-20T06:42:12.938Z,6.38
2022-10-20T06:44:59.168Z,6.57
2022-10-20T06:47:45.265Z,6.76
2022-10-20T06:50:30.629Z,6.91
2022-10-20T06:53:16.267Z,6.91
2022-10-20T06:56:08.107Z,7.56
2022-10-20T06:58:55.771Z,7.56
2022-10-20T07:01:42.203Z,7.71
2022-10-20T07:04:28.058Z,8.15
2022-10-20T07:07:13.399Z,8.18
2022-10-20T07:09:59.225Z,8.32
2022-10-20T07:12:44.760Z,9.10
2022-10-20T07:15:30.133Z,9.30
2022-10-20T07:18:15.718Z,9.86
2022-10-20T07:21:04.130Z,10.41
2022-10-20T07:23:50.636Z,10.78
2022-10-20T07:26:39.214Z,11.22
2022-10-20T07:29:25.008Z,11.37
2022-10-20T07:32:10.580Z,11.82
2022-10-20T07:34:56.052Z,11.79
2022-10-20T07:37:41.415Z,12.03
2022-10-20T07:40:27.117Z,11.99
2022-10-20T07:43:12.776Z,12.88
2022-10-20T07:45:58.121Z,12.86
2022-10-20T07:48:43.890Z,12.57
2022-10-20T07:51:30.946Z,12.29
2022-10-20T07:54:16.860Z,12.24
2022-10-20T07:57:02.701Z,12.52
2022-10-20T07:59:48.025Z,12.82
2022-10-20T08:02:33.517Z,13.00
2022-10-20T08:05:19.151Z,12.44
2022-10-20T08:08:04.970Z,12.82
2022-10-20T08:10:51.018Z,12.97
2022-10-20T08:13:36.570Z,13.70
2022-10-20T08:16:31.087Z,13.24
2022-10-20T08:19:24.863Z,14.69
2022-10-20T08:22:10.738Z,15.55
2022-10-20T08:24:56.363Z,15.39
2022-10-20T08:27:42.139Z,15.72
2022-10-20T08:30:27.887Z,14.67
2022-10-20T08:33:13.686Z,14.22
2022-10-20T08:36:04.422Z,14.43
2022-10-20T08:38:49.860Z,14.93
2022-10-20T08:42:07.447Z,14.87
2022-10-20T08:44:47.304Z,15.32
2022-10-20T08:47:37.342Z,15.03
2022-10-20T08:50:27.578Z,15.50
2022-10-20T08:53:13.154Z,16.54
2022-10-20T08:55:59.085Z,15.96
2022-10-20T08:58:46.366Z,15.82
2022-10-20T09:01:36.106Z,15.40
2022-10-20T09:04:37.136Z,15.37
2022-10-20T09:07:35.841Z,16.19
2022-10-20T09:10:31.600Z,16.58
2022-10-20T09:13:24.898Z,16.66
2022-10-20T09:16:33.426Z,16.48
2022-10-20T09:19:28.162Z,17.50
2022-10-20T09:22:14.655Z,18.92
2022-10-20T09:25:00.439Z,18.88
2022-10-20T09:27:46.320Z,19.80
2022-10-20T09:30:34.396Z,19.55
2022-10-20T09:33:34.244Z,19.76
2022-10-20T09:36:27.669Z,20.97
2022-10-20T09:39:27.030Z,20.47
2022-10-20T09:42:16.608Z,20.93
2022-10-20T09:45:06.962Z,20.00
2022-10-20T09:47:56.391Z,20.22
2022-10-20T09:50:48.013Z,21.85
2022-10-20T09:53:39.932Z,21.83
2022-10-20T09:56:25.545Z,21.80
2022-10-20T09:59:19.735Z,20.08
2022-10-20T10:02:29.872Z,20.57
2022-10-20T11:10:39.998Z,23.44
2022-10-20T14:35:11.724Z,15.60
2022-10-20T14:37:44.845Z,15.43
2022-10-20T14:40:35.499Z,15.35
2022-10-20T14:43:53.553Z,15.36
2022-10-20T14:46:48.186Z,15.06
2022-10-20T14:50:44.231Z,14.88
2022-10-20T14:53:29.517Z,15.19
2022-10-20T14:58:03.376Z,14.30
2022-10-20T14:59:47.567Z,14.38
2022-10-20T15:03:32.183Z,14.33
2022-10-20T15:06:23.617Z,14.04
2022-10-20T15:10:27.461Z,13.82
2022-10-20T15:15:58.626Z,13.53
2022-10-20T15:18:58.131Z,13.82
2022-10-20T15:25:03.392Z,13.06
2022-10-20T15:27:50.537Z,13.09
2022-10-20T15:30:36.374Z,12.96
2022-10-20T15:33:36.440Z,13.00
2022-10-20T15:36:31.515Z,12.96
2022-10-20T15:39:20.601Z,12.98
2022-10-20T15:42:22.170Z,12.81
2022-10-20T15:45:22.699Z,13.14
2022-10-20T15:48:23.541Z,12.71
2022-10-20T15:51:39.043Z,12.44
2022-10-20T15:54:25.082Z,12.47
2022-10-20T15:57:24.737Z,12.37
2022-10-20T16:00:12.387Z,12.16
2022-10-20T16:03:08.688Z,12.31
2022-10-20T16:05:55.874Z,12.35
2022-10-20T16:08:51.926Z,12.37
2022-10-20T16:11:42.513Z,12.67
2022-10-20T16:14:28.167Z,12.66
2022-10-20T16:17:13.732Z,12.71
2022-10-20T16:19:59.289Z,12.70
2022-10-20T16:22:44.854Z,12.21
2022-10-20T16:25:30.321Z,12.42
2022-10-20T16:28:15.853Z,12.15
2022-10-20T16:31:06.758Z,12.07
2022-10-20T16:33:52.179Z,12.42
2022-10-20T16:36:38.391Z,12.63
2022-10-20T16:39:24.173Z,11.94
2022-10-20T16:42:09.640Z,12.01
2022-10-20T16:44:55.152Z,12.30
2022-10-20T16:47:40.896Z,12.23
2022-10-20T16:50:26.241Z,12.28
2022-10-20T16:53:11.645Z,12.55
2022-10-20T16:55:57.499Z,12.38
2022-10-20T16:58:43.081Z,12.42
2022-10-20T17:01:28.744Z,12.61
2022-10-20T17:04:14.598Z,12.63
2022-10-20T17:07:00.168Z,12.33
2022-10-20T17:09:45.911Z,12.06
2022-10-20T17:12:31.422Z,12.55
2022-10-20T17:15:16.909Z,12.41
2022-10-20T17:18:02.337Z,12.15
2022-10-20T17:20:53.115Z,12.29
2022-10-20T17:23:42.616Z,12.36
2022-10-20T17:26:32.597Z,12.45
2022-10-20T17:29:21.043Z,12.11
2022-10-20T17:32:10.086Z,12.23
2022-10-20T17:34:57.759Z,12.34
2022-10-20T17:37:43.418Z,12.31
2022-10-20T17:40:28.859Z,12.36
2022-10-20T17:43:14.969Z,12.18
2022-10-20T17:46:03.547Z,12.38
2022-10-20T17:48:49.272Z,12.27
2022-10-20T17:51:35.216Z,12.34
2022-10-20T17:54:22.233Z,12.55
2022-10-20T17:57:07.988Z,12.46
2022-10-20T17:59:56.362Z,12.26
2022-10-20T18:02:51.390Z,12.56
2022-10-20T18:05:37.162Z,12.23
2022-10-20T18:08:22.542Z,12.43
2022-10-20T18:11:11.864Z,12.38
2022-10-20T18:13:59.919Z,12.69
2022-10-20T18:16:45.575Z,12.41
2022-10-20T18:19:31.407Z,12.62
2022-10-20T18:22:16.795Z,12.46
2022-10-20T18:25:02.274Z,12.48
2022-10-20T18:27:48.058Z,12.43
2022-10-20T18:30:37.335Z,12.17
2022-10-20T18:33:23.071Z,12.46
2022-10-20T18:36:11.293Z,12.74
2022-10-20T18:38:57.265Z,12.43
2022-10-20T18:41:43.854Z,12.81
2022-10-20T18:47:20.786Z,12.48
2022-10-20T18:50:06.415Z,12.65
2022-10-20T18:52:51.923Z,12.56
2022-10-20T18:55:37.832Z,12.43
2022-10-20T18:58:23.248Z,12.26
2022-10-20T19:01:14.283Z,12.32
2022-10-20T19:04:00.472Z,12.71
2022-10-20T19:06:47.859Z,12.27
2022-10-20T19:09:33.445Z,12.22
2022-10-20T19:12:18.949Z,12.28
2022-10-20T19:15:04.642Z,12.23
2022-10-20T19:17:50.338Z,12.29
2022-10-20T19:20:35.931Z,12.38
2022-10-20T19:23:22.033Z,12.34
2022-10-20T19:26:17.262Z,12.21
2022-10-20T19:29:08.692Z,12.35
2022-10-20T19:31:59.171Z,12.36
2022-10-20T19:34:45.271Z,12.73
2022-10-20T19:37:30.888Z,12.25
2022-10-20T19:40:16.344Z,12.30
2022-10-20T19:43:01.787Z,12.50
2022-10-20T19:45:49.172Z,12.01
2022-10-20T19:48:35.823Z,12.06
2022-10-20T19:51:21.835Z,11.90
2022-10-20T19:54:08.410Z,12.06
2022-10-20T19:56:54.292Z,11.82
2022-10-20T19:59:39.865Z,11.61
2022-10-20T20:02:25.783Z,12.13
2022-10-20T20:05:11.401Z,11.53
2022-10-20T20:07:56.839Z,11.59
2022-10-20T20:10:51.098Z,11.57
2022-10-20T20:13:36.902Z,11.47
2022-10-20T20:16:22.677Z,11.60
2022-10-20T20:19:08.487Z,11.79
2022-10-20T20:21:55.312Z,11.33
2022-10-20T20:24:41.036Z,11.66
2022-10-20T20:27:26.507Z,11.51
2022-10-20T20:30:12.261Z,11.69
2022-10-20T20:32:57.791Z,11.27
2022-10-20T20:35:43.334Z,11.32
2022-10-20T20:38:31.355Z,11.47
2022-10-20T20:41:18.305Z,11.35
2022-10-20T20:44:08.064Z,11.50
2022-10-20T20:46:54.395Z,11.71
2022-10-20T20:49:39.785Z,11.20
2022-10-20T20:52:26.091Z,11.32
2022-10-20T20:55:11.804Z,11.37
2022-10-20T20:57:57.123Z,11.09
2022-10-20T21:00:42.841Z,10.98
2022-10-20T21:03:29.268Z,11.23
2022-10-20T21:06:17.042Z,11.35
2022-10-20T21:09:11.195Z,11.18
2022-10-20T21:11:56.979Z,11.04
2022-10-20T21:14:42.532Z,10.88
2022-10-20T21:17:27.871Z,10.94
2022-10-20T21:20:13.299Z,10.91
2022-10-20T21:23:01.208Z,10.94
2022-10-20T21:25:49.716Z,11.06
2022-10-20T21:28:38.795Z,11.00
2022-10-20T21:31:26.165Z,10.98
2022-10-20T21:34:12.126Z,10.82
2022-10-20T21:36:57.936Z,11.05
2022-10-20T21:39:43.762Z,10.91
2022-10-20T21:42:29.019Z,10.81
2022-10-20T21:45:19.024Z,11.04
2022-10-20T21:48:05.373Z,10.85
2022-10-20T21:50:50.998Z,10.99
2022-10-20T21:53:36.986Z,11.38
2022-10-20T21:56:22.790Z,10.98
2022-10-20T21:59:15.220Z,10.89
2022-10-20T22:02:02.084Z,10.78
2022-10-20T22:04:47.865Z,10.97
2022-10-20T22:07:33.615Z,10.90
2022-10-20T22:10:18.936Z,11.24
2022-10-20T22:13:05.327Z,10.61
2022-10-20T22:15:50.940Z,10.66
2022-10-20T22:18:36.843Z,11.02
2022-10-20T22:21:24.945Z,10.71
2022-10-20T22:24:11.150Z,10.94
2022-10-20T22:26:56.706Z,10.61
2022-10-20T22:29:42.365Z,10.57
2022-10-20T22:32:27.937Z,10.70
2022-10-20T22:35:13.674Z,10.75
2022-10-20T22:37:59.417Z,10.99
2022-10-20T22:40:45.020Z,10.94
2022-10-20T22:43:31.383Z,10.70
2022-10-20T22:46:18.871Z,11.28
2022-10-20T22:49:07.422Z,10.70
2022-10-20T22:51:53.134Z,10.87
2022-10-20T22:54:38.744Z,10.63
2022-10-20T22:57:24.219Z,10.88
2022-10-20T23:00:13.577Z,10.91
2022-10-20T23:02:59.190Z,10.78
2022-10-20T23:05:44.903Z,11.25
2022-10-20T23:08:32.057Z,10.49
2022-10-20T23:11:19.151Z,10.53
2022-10-20T23:14:04.638Z,11.05
2022-10-20T23:16:50.214Z,10.69
2022-10-20T23:19:35.825Z,10.70
2022-10-20T23:22:24.243Z,10.80
2022-10-20T23:25:10.053Z,10.92
2022-10-20T23:27:56.447Z,10.73
2022-10-20T23:30:41.966Z,10.68
2022-10-20T23:33:27.351Z,10.54
2022-10-20T23:36:14.252Z,10.97
2022-10-20T23:39:02.345Z,10.92
2022-10-20T23:41:47.860Z,10.78
2022-10-20T23:44:33.235Z,10.52
2022-10-20T23:47:18.859Z,10.66
2022-10-20T23:50:04.360Z,10.71
2022-10-20T23:52:49.920Z,10.43
2022-10-20T23:55:35.659Z,10.66
2022-10-20T23:58:22.614Z,10.52
